Terminal Aerodrome Forecast
Issued by NWS

Home | Current Version | Previous Version | Text Only | Print | Product List | Glossary On
Versions: 1 2 3 4 5 6 7 8 9 10 11 12 13 14 15 16
000
FTUS42 KTBW 211200 AAA
TAFLAL
TAF AMD
KLAL 211210Z 2112/2212 VRB03KT 6SM BR SCT003 SCT070 SCT250
      TEMPO 2112/2114 2SM BR BKN003
     FM211400 VRB03KT P6SM SCT015 SCT070 SCT250
     FM211600 VRB04KT P6SM SCT030 SCT070 SCT250
     FM211800 26005KT P6SM VCTS SCT040CB BKN070
     FM220000 VRB05KT P6SM FEW040 SCT100 BKN250
     FM220600 VRB03KT P6SM BKN100=

USA.gov is the U.S. government's official web portal to all federal, state and local government web resources and services.